TimeMST,TemperatureF,Dew PointF,Humidity,Sea Level PressureIn,VisibilityMPH,Wind Direction,Wind SpeedMPH,Gust SpeedMPH,PrecipitationIn,Events,Conditions,WindDirDegrees,DateUTC
12:51 AM,93.9,41.0,16,29.62,10.0,WNW,5.8,-,N/A,,Mostly Cloudy,300,2013-06-02 07:51:00
1:51 AM,89.1,43.0,20,29.62,10.0,SW,3.5,-,N/A,,Mostly Cloudy,220,2013-06-02 08:51:00
2:51 AM,88.0,43.0,21,29.62,10.0,Calm,Calm,-,N/A,,Scattered Clouds,0,2013-06-02 09:51:00
3:51 AM,84.9,41.0,21,29.62,10.0,ENE,5.8,-,N/A,,Scattered Clouds,70,2013-06-02 10:51:00
4:51 AM,84.0,39.0,20,29.63,10.0,East,6.9,-,N/A,,Scattered Clouds,80,2013-06-02 11:51:00
5:51 AM,82.9,41.0,23,29.65,10.0,East,10.4,-,N/A,,Partly Cloudy,80,2013-06-02 12:51:00
6:51 AM,84.9,41.0,21,29.67,10.0,East,8.1,-,N/A,,Partly Cloudy,80,2013-06-02 13:51:00
7:51 AM,88.0,43.0,21,29.67,10.0,ESE,8.1,-,N/A,,Partly Cloudy,110,2013-06-02 14:51:00
8:51 AM,93.0,43.0,18,29.68,10.0,ESE,9.2,-,N/A,,Partly Cloudy,120,2013-06-02 15:51:00
9:51 AM,98.1,43.0,15,29.67,10.0,SE,6.9,-,N/A,,Clear,140,2013-06-02 16:51:00
10:51 AM,100.0,43.0,14,29.67,10.0,Variable,4.6,-,N/A,,Clear,0,2013-06-02 17:51:00
11:51 AM,102.9,41.0,12,29.65,10.0,Variable,6.9,-,N/A,,Partly Cloudy,0,2013-06-02 18:51:00
12:51 PM,104.0,39.0,11,29.62,10.0,Variable,4.6,-,N/A,,Clear,0,2013-06-02 19:51:00
1:51 PM,107.1,36.0,9,29.60,10.0,Variable,3.5,-,N/A,,Partly Cloudy,0,2013-06-02 20:51:00
2:51 PM,106.0,37.9,10,29.58,10.0,Variable,3.5,-,N/A,,Partly Cloudy,0,2013-06-02 21:51:00
3:51 PM,107.1,37.9,9,29.55,10.0,NNW,6.9,-,N/A,,Partly Cloudy,330,2013-06-02 22:51:00
4:51 PM,107.1,30.9,7,29.53,10.0,Calm,Calm,-,N/A,,Partly Cloudy,0,2013-06-02 23:51:00
5:51 PM,107.1,30.0,7,29.53,10.0,WNW,18.4,24.2,N/A,,Clear,290,2013-06-03 00:51:00
6:51 PM,105.1,30.0,7,29.54,10.0,West,20.7,-,N/A,,Clear,260,2013-06-03 01:51:00
7:51 PM,100.9,30.9,9,29.55,10.0,WSW,16.1,20.7,N/A,,Clear,250,2013-06-03 02:51:00
8:51 PM,98.1,32.0,10,29.57,10.0,West,12.7,-,N/A,,Clear,260,2013-06-03 03:51:00
9:51 PM,96.1,30.9,10,29.60,10.0,West,9.2,-,N/A,,Clear,270,2013-06-03 04:51:00
10:51 PM,95.0,30.9,10,29.60,10.0,West,8.1,-,N/A,,Clear,280,2013-06-03 05:51:00
11:51 PM,93.0,30.0,11,29.60,10.0,NW,4.6,-,N/A,,Clear,320,2013-06-03 06:51:00